Time;durP1;ratioP1;P1;durP2;ratioP2;P2;SDS_P1;SDS_P2;PMS_P1;PMS_P2;Temp;Humidity;BMP_temperature;BMP_pressure;BME280_temperature;BME280_humidity;BME280_pressure;Samples;Min_cycle;Max_cycle;Signal;HPM_P1;HPM_P2
2022/10/10 00:01:30;;;;;;;7.72;3.95;;;;;;;;;;5048550;28;20053;-85
2022/10/10 00:03:58;;;;;;;9.77;3.88;;;;;;;;;;5048469;28;20448;-85
2022/10/10 00:06:26;;;;;;;5.10;3.50;;;;;;;;;;5048300;28;20057;-85
2022/10/10 00:08:59;;;;;;;13.73;4.22;;;;;;;;;;5032551;28;20521;-84
2022/10/10 00:11:26;;;;;;;7.38;4.03;;;;;;;;;;5048258;28;20061;-85
2022/10/10 00:13:53;;;;;;;4.28;3.30;;;;;;;;;;5033252;28;20085;-85
2022/10/10 00:16:20;;;;;;;6.28;3.63;;;;;;;;;;5048461;28;20105;-85
2022/10/10 00:18:48;;;;;;;5.85;3.13;;;;;;;;;;5032885;28;20064;-85
2022/10/10 00:21:15;;;;;;;4.78;3.55;;;;;;;;;;5048170;28;20049;-85
2022/10/10 00:23:42;;;;;;;4.28;3.60;;;;;;;;;;5033040;28;20049;-85
2022/10/10 00:26:10;;;;;;;4.70;3.63;;;;;;;;;;5048117;28;20519;-85
2022/10/10 00:28:44;;;;;;;9.38;3.80;;;;;;;;;;5047340;28;20049;-84
2022/10/10 00:31:11;;;;;;;6.43;4.32;;;;;;;;;;5048247;28;20045;-85
2022/10/10 00:33:39;;;;;;;5.97;3.72;;;;;;;;;;5033021;28;20057;-85
2022/10/10 00:36:06;;;;;;;10.75;4.60;;;;;;;;;;5047787;28;20049;-85
2022/10/10 00:38:33;;;;;;;7.03;4.18;;;;;;;;;;5048079;28;20055;-85
2022/10/10 00:41:01;;;;;;;6.15;3.67;;;;;;;;;;5048044;28;20568;-85
2022/10/10 00:43:29;;;;;;;4.53;3.42;;;;;;;;;;5032623;28;20060;-84
2022/10/10 00:45:56;;;;;;;7.03;3.92;;;;;;;;;;5048003;28;20041;-85
2022/10/10 00:48:25;;;;;;;8.35;3.80;;;;;;;;;;5048099;28;20505;-84
2022/10/10 00:50:55;;;;;;;7.57;4.07;;;;;;;;;;5032591;28;20046;-85
2022/10/10 00:53:26;;;;;;;9.38;3.50;;;;;;;;;;5047961;28;20408;-85
2022/10/10 00:55:54;;;;;;;6.55;3.67;;;;;;;;;;5032455;28;20057;-85
2022/10/10 00:58:21;;;;;;;5.72;3.65;;;;;;;;;;5032429;28;20490;-85
2022/10/10 01:00:49;;;;;;;5.28;3.22;;;;;;;;;;5036223;28;20564;-85
2022/10/10 01:03:16;;;;;;;6.93;3.38;;;;;;;;;;5035699;28;20081;-85
2022/10/10 01:05:44;;;;;;;6.25;3.30;;;;;;;;;;5051412;28;20042;-85
2022/10/10 01:08:12;;;;;;;8.85;3.63;;;;;;;;;;5035998;28;20049;-85
2022/10/10 01:10:45;;;;;;;6.53;3.40;;;;;;;;;;5035877;28;20445;-85
2022/10/10 01:13:30;;;;;;;7.60;3.17;;;;;;;;;;5036088;28;20049;-85
2022/10/10 01:16:14;;;;;;;8.45;3.45;;;;;;;;;;5035799;28;20486;-85
2022/10/10 01:18:41;;;;;;;3.42;3.13;;;;;;;;;;5035827;28;20064;-85
2022/10/10 01:21:27;;;;;;;4.95;3.22;;;;;;;;;;5035930;28;20049;-86
2022/10/10 01:24:13;;;;;;;3.72;3.30;;;;;;;;;;5035833;28;20041;-84
2022/10/10 01:26:43;;;;;;;6.07;3.17;;;;;;;;;;5051323;28;20049;-85
2022/10/10 01:29:18;;;;;;;4.18;3.28;;;;;;;;;;5051138;28;20140;-85
2022/10/10 01:31:48;;;;;;;7.85;3.55;;;;;;;;;;5050991;28;20060;-85
2022/10/10 01:34:33;;;;;;;10.27;3.63;;;;;;;;;;5050839;28;20064;-85
2022/10/10 01:37:16;;;;;;;7.13;3.10;;;;;;;;;;5050904;28;20580;-85
2022/10/10 01:39:43;;;;;;;7.10;3.28;;;;;;;;;;5051027;28;20073;-85
2022/10/10 01:42:15;;;;;;;5.30;3.10;;;;;;;;;;5050856;28;20050;-85
2022/10/10 01:44:46;;;;;;;6.50;3.17;;;;;;;;;;5050859;28;20128;-85
2022/10/10 01:47:13;;;;;;;4.32;3.45;;;;;;;;;;5050500;28;20050;-85
2022/10/10 01:49:42;;;;;;;6.63;3.78;;;;;;;;;;5050918;28;20152;-85
2022/10/10 01:52:28;;;;;;;4.45;3.60;;;;;;;;;;5050758;28;20052;-85
2022/10/10 01:55:04;;;;;;;6.32;3.60;;;;;;;;;;5050641;28;20053;-85
2022/10/10 01:57:34;;;;;;;5.82;3.35;;;;;;;;;;5050491;28;20413;-85
2022/10/10 02:00:04;;;;;;;4.15;3.58;;;;;;;;;;5050655;28;20049;-85
2022/10/10 02:02:35;;;;;;;4.35;3.70;;;;;;;;;;5050369;28;20077;-85
2022/10/10 02:05:20;;;;;;;3.78;3.08;;;;;;;;;;5034863;28;20082;-85
2022/10/10 02:08:03;;;;;;;4.28;3.25;;;;;;;;;;5050232;28;20042;-85
2022/10/10 02:10:35;;;;;;;6.20;3.08;;;;;;;;;;5050153;28;20060;-85
2022/10/10 02:13:03;;;;;;;7.22;3.20;;;;;;;;;;5050462;28;20049;-85
2022/10/10 02:15:37;;;;;;;5.57;3.35;;;;;;;;;;5035046;28;20064;-85
2022/10/10 02:18:06;;;;;;;6.70;3.28;;;;;;;;;;5034888;28;20053;-85
2022/10/10 02:20:34;;;;;;;4.47;3.38;;;;;;;;;;5050115;28;20060;-85
2022/10/10 02:23:01;;;;;;;5.55;3.08;;;;;;;;;;5050040;28;20544;-86
2022/10/10 02:25:31;;;;;;;6.90;3.53;;;;;;;;;;5049992;28;20405;-85
2022/10/10 02:28:07;;;;;;;4.80;3.33;;;;;;;;;;5050148;28;20061;-85
2022/10/10 02:30:36;;;;;;;3.42;3.13;;;;;;;;;;5050141;28;20099;-85
2022/10/10 02:33:05;;;;;;;4.72;2.78;;;;;;;;;;5034261;28;20057;-85
2022/10/10 02:35:35;;;;;;;13.77;3.97;;;;;;;;;;5050067;28;20053;-85
2022/10/10 02:38:03;;;;;;;7.72;3.30;;;;;;;;;;5034392;28;20046;-85
2022/10/10 02:40:32;;;;;;;4.13;3.38;;;;;;;;;;5050005;28;20053;-85
2022/10/10 02:43:00;;;;;;;9.10;3.80;;;;;;;;;;5049558;28;20061;-85
2022/10/10 02:45:31;;;;;;;6.47;3.50;;;;;;;;;;5049583;28;20057;-85
2022/10/10 02:47:59;;;;;;;9.45;3.47;;;;;;;;;;5034100;28;20635;-85
2022/10/10 02:50:27;;;;;;;5.05;3.20;;;;;;;;;;5034364;28;20046;-85
2022/10/10 02:52:55;;;;;;;4.50;3.03;;;;;;;;;;5049469;28;20049;-85
2022/10/10 02:55:22;;;;;;;5.97;3.00;;;;;;;;;;5049349;28;20049;-85
2022/10/10 02:57:49;;;;;;;6.03;3.47;;;;;;;;;;5049502;28;20150;-85
2022/10/10 03:00:17;;;;;;;3.83;2.80;;;;;;;;;;5033933;28;20053;-85
2022/10/10 03:02:45;;;;;;;4.07;2.92;;;;;;;;;;5049193;28;20053;-85
2022/10/10 03:05:12;;;;;;;5.72;2.70;;;;;;;;;;5033855;28;20056;-85
2022/10/10 03:07:39;;;;;;;5.18;3.05;;;;;;;;;;5034009;28;20057;-84
2022/10/10 03:10:07;;;;;;;5.85;2.88;;;;;;;;;;5033662;28;20049;-85
2022/10/10 03:12:34;;;;;;;3.83;2.85;;;;;;;;;;5048931;28;20076;-85
2022/10/10 03:15:02;;;;;;;6.00;3.17;;;;;;;;;;5033667;28;20056;-85
2022/10/10 03:17:33;;;;;;;4.30;2.70;;;;;;;;;;5033772;28;20498;-84
2022/10/10 03:20:02;;;;;;;4.10;3.20;;;;;;;;;;5049105;28;20060;-85
2022/10/10 03:22:29;;;;;;;5.20;3.10;;;;;;;;;;5032928;28;20049;-85
2022/10/10 03:24:56;;;;;;;4.35;3.10;;;;;;;;;;5033357;28;20075;-86
2022/10/10 03:27:24;;;;;;;3.38;3.03;;;;;;;;;;5033653;28;20501;-85
2022/10/10 03:29:51;;;;;;;7.60;3.45;;;;;;;;;;5033471;28;20045;-85
2022/10/10 03:32:18;;;;;;;7.18;3.65;;;;;;;;;;5048815;28;20497;-85
2022/10/10 03:34:45;;;;;;;4.32;2.83;;;;;;;;;;5048953;28;20059;-85
2022/10/10 03:37:12;;;;;;;3.13;2.90;;;;;;;;;;5048724;28;20072;-85
2022/10/10 03:39:39;;;;;;;6.15;3.53;;;;;;;;;;5048665;28;20061;-85
2022/10/10 03:42:07;;;;;;;4.75;2.78;;;;;;;;;;5048571;28;20057;-85
2022/10/10 03:44:34;;;;;;;3.28;2.70;;;;;;;;;;5033416;28;20056;-85
2022/10/10 03:47:01;;;;;;;5.60;3.22;;;;;;;;;;5048641;28;20049;-85
2022/10/10 03:49:28;;;;;;;6.70;3.28;;;;;;;;;;5048793;28;20050;-85
2022/10/10 03:51:55;;;;;;;6.80;3.25;;;;;;;;;;5048381;28;20049;-85
2022/10/10 03:54:23;;;;;;;6.72;3.00;;;;;;;;;;5033010;28;20132;-85
2022/10/10 03:56:50;;;;;;;7.60;3.53;;;;;;;;;;5033542;28;20053;-85
2022/10/10 03:59:17;;;;;;;5.28;3.17;;;;;;;;;;5033134;28;20412;-85
2022/10/10 04:01:44;;;;;;;6.13;3.65;;;;;;;;;;5033052;28;20050;-84
2022/10/10 04:04:11;;;;;;;9.85;3.10;;;;;;;;;;5032871;28;20045;-85
2022/10/10 04:06:39;;;;;;;5.70;3.80;;;;;;;;;;5048473;28;20046;-85
2022/10/10 04:09:06;;;;;;;5.38;3.65;;;;;;;;;;5048208;28;20505;-85
2022/10/10 04:11:35;;;;;;;6.35;3.58;;;;;;;;;;5046866;28;20045;-85
2022/10/10 04:14:02;;;;;;;5.40;4.03;;;;;;;;;;5048216;28;20064;-85
2022/10/10 04:16:29;;;;;;;7.68;4.82;;;;;;;;;;5048451;28;20505;-85
2022/10/10 04:18:56;;;;;;;8.43;4.18;;;;;;;;;;5048211;28;20053;-85
2022/10/10 04:21:23;;;;;;;7.97;4.57;;;;;;;;;;5048494;28;20049;-84
2022/10/10 04:23:50;;;;;;;6.00;3.47;;;;;;;;;;5048194;28;20152;-85
2022/10/10 04:26:18;;;;;;;8.25;4.43;;;;;;;;;;5048123;28;20045;-85
2022/10/10 04:28:45;;;;;;;9.10;5.10;;;;;;;;;;5048295;28;20046;-85
2022/10/10 04:31:12;;;;;;;9.05;5.15;;;;;;;;;;5048301;28;20064;-85
2022/10/10 04:33:39;;;;;;;12.55;5.53;;;;;;;;;;5050293;28;20156;-86
2022/10/10 04:36:07;;;;;;;41.17;5.53;;;;;;;;;;5051963;28;20103;-85
2022/10/10 04:38:34;;;;;;;24.83;6.05;;;;;;;;;;5052185;28;20049;-85
2022/10/10 04:41:02;;;;;;;15.05;5.15;;;;;;;;;;5036500;28;20049;-85
2022/10/10 04:43:29;;;;;;;18.13;5.18;;;;;;;;;;5052111;28;20060;-85
2022/10/10 04:46:00;;;;;;;9.60;4.55;;;;;;;;;;5036401;28;20064;-85
2022/10/10 04:48:27;;;;;;;13.73;4.20;;;;;;;;;;5051947;28;20053;-85
2022/10/10 04:50:56;;;;;;;10.18;4.18;;;;;;;;;;5051753;28;20055;-85
2022/10/10 04:53:23;;;;;;;6.88;3.85;;;;;;;;;;5036598;28;20059;-85
2022/10/10 04:55:50;;;;;;;8.30;4.13;;;;;;;;;;5036408;28;20076;-85
2022/10/10 04:58:18;;;;;;;22.20;5.45;;;;;;;;;;5036207;28;20513;-85
2022/10/10 05:00:45;;;;;;;12.93;4.93;;;;;;;;;;5051698;28;20441;-85
2022/10/10 05:03:12;;;;;;;16.23;4.88;;;;;;;;;;5051479;28;20060;-85
2022/10/10 05:05:39;;;;;;;10.63;4.63;;;;;;;;;;5036430;28;20050;-85
2022/10/10 05:08:06;;;;;;;11.45;4.38;;;;;;;;;;5051390;28;20057;-85
2022/10/10 05:10:38;;;;;;;7.18;4.63;;;;;;;;;;5036185;28;20065;-84
2022/10/10 05:13:05;;;;;;;20.00;3.90;;;;;;;;;;5051716;28;20422;-85
2022/10/10 05:15:36;;;;;;;11.52;4.25;;;;;;;;;;5035944;28;20092;-86
2022/10/10 05:18:03;;;;;;;6.63;3.90;;;;;;;;;;5036092;28;20464;-85
2022/10/10 05:20:31;;;;;;;12.32;5.13;;;;;;;;;;5051261;28;20045;-85
2022/10/10 05:22:58;;;;;;;5.70;4.22;;;;;;;;;;5035800;28;20498;-85
2022/10/10 05:25:25;;;;;;;8.38;4.53;;;;;;;;;;5035780;28;20136;-84
2022/10/10 05:27:53;;;;;;;11.70;4.95;;;;;;;;;;5051247;28;20045;-85
2022/10/10 05:30:20;;;;;;;5.85;4.72;;;;;;;;;;5051191;28;20045;-85
2022/10/10 05:32:47;;;;;;;8.45;5.47;;;;;;;;;;5051419;28;20080;-85
2022/10/10 05:35:15;;;;;;;10.25;4.85;;;;;;;;;;5035647;28;20045;-86
2022/10/10 05:37:42;;;;;;;10.00;5.78;;;;;;;;;;5035818;28;20405;-85
2022/10/10 05:40:10;;;;;;;8.13;5.85;;;;;;;;;;5035443;28;20053;-85
2022/10/10 05:42:37;;;;;;;11.70;5.18;;;;;;;;;;5050927;28;20060;-85
2022/10/10 05:45:05;;;;;;;22.95;6.10;;;;;;;;;;5050092;28;20072;-84
2022/10/10 05:47:32;;;;;;;12.50;5.47;;;;;;;;;;5050768;28;20065;-85
2022/10/10 05:49:59;;;;;;;12.13;7.28;;;;;;;;;;5050640;28;20060;-85
2022/10/10 05:52:28;;;;;;;18.63;6.07;;;;;;;;;;5035249;28;20064;-85
2022/10/10 05:54:55;;;;;;;8.20;4.53;;;;;;;;;;5034964;28;20057;-85
2022/10/10 05:57:22;;;;;;;17.13;5.53;;;;;;;;;;5035260;28;20088;-86
2022/10/10 05:59:49;;;;;;;9.27;4.38;;;;;;;;;;5050750;28;20072;-85
2022/10/10 06:02:16;;;;;;;8.93;5.45;;;;;;;;;;5035325;28;20056;-86
2022/10/10 06:04:44;;;;;;;33.70;7.65;;;;;;;;;;5050160;28;20050;-85
2022/10/10 06:07:11;;;;;;;29.73;6.43;;;;;;;;;;5050217;28;20045;-86
2022/10/10 06:09:38;;;;;;;22.90;4.63;;;;;;;;;;5034461;28;20520;-84
2022/10/10 06:12:05;;;;;;;17.50;6.07;;;;;;;;;;5034757;28;20042;-85
2022/10/10 06:14:32;;;;;;;29.70;10.30;;;;;;;;;;5050406;28;20092;-85
2022/10/10 06:16:59;;;;;;;56.42;33.78;;;;;;;;;;5050039;28;20049;-85
2022/10/10 06:19:26;;;;;;;26.80;9.32;;;;;;;;;;5050161;28;20486;-85
2022/10/10 06:21:54;;;;;;;19.52;8.95;;;;;;;;;;5050065;28;20053;-85
2022/10/10 06:24:21;;;;;;;15.00;6.88;;;;;;;;;;5034497;28;20061;-85
2022/10/10 06:26:48;;;;;;;20.00;6.15;;;;;;;;;;5034963;28;20085;-85
2022/10/10 06:29:15;;;;;;;29.30;8.98;;;;;;;;;;5050031;28;20120;-86
2022/10/10 06:31:42;;;;;;;42.15;26.85;;;;;;;;;;5050087;28;20052;-85
2022/10/10 06:34:09;;;;;;;22.92;8.85;;;;;;;;;;5050031;28;20052;-86
2022/10/10 06:36:39;;;;;;;16.55;7.05;;;;;;;;;;5049768;28;20076;-86
2022/10/10 06:39:06;;;;;;;15.98;8.57;;;;;;;;;;5034595;28;20057;-86
2022/10/10 06:41:33;;;;;;;13.65;6.40;;;;;;;;;;5034692;28;20053;-85
2022/10/10 06:44:00;;;;;;;19.67;6.57;;;;;;;;;;5049849;28;20421;-87
2022/10/10 06:46:27;;;;;;;27.13;14.77;;;;;;;;;;5050250;28;20050;-86
2022/10/10 06:48:54;;;;;;;24.13;11.10;;;;;;;;;;5049720;28;20056;-86
2022/10/10 06:51:23;;;;;;;34.05;6.65;;;;;;;;;;5049641;28;20046;-85
2022/10/10 06:53:50;;;;;;;130.82;13.65;;;;;;;;;;5034388;28;20132;-85
2022/10/10 06:56:20;;;;;;;102.35;11.32;;;;;;;;;;5033696;28;20053;-86
2022/10/10 06:58:53;;;;;;;43.38;9.70;;;;;;;;;;5049007;28;20075;-85
2022/10/10 07:01:21;;;;;;;55.38;9.55;;;;;;;;;;5049338;28;20041;-85
2022/10/10 07:03:48;;;;;;;50.90;8.43;;;;;;;;;;5049314;28;20076;-86
2022/10/10 07:06:17;;;;;;;41.00;8.75;;;;;;;;;;5049249;28;20042;-86
2022/10/10 07:08:44;;;;;;;37.08;8.05;;;;;;;;;;5034012;28;20057;-87
2022/10/10 07:11:11;;;;;;;78.95;23.38;;;;;;;;;;5050097;28;20056;-86
2022/10/10 07:13:39;;;;;;;176.32;76.75;;;;;;;;;;5049660;28;20046;-86
2022/10/10 07:16:06;;;;;;;42.53;14.10;;;;;;;;;;5033646;28;20441;-86
2022/10/10 07:18:35;;;;;;;23.13;10.63;;;;;;;;;;5033892;28;20053;-86
2022/10/10 07:21:03;;;;;;;29.20;11.32;;;;;;;;;;5049300;28;20045;-86
2022/10/10 07:23:31;;;;;;;21.88;9.60;;;;;;;;;;5033838;28;20057;-86
2022/10/10 07:26:00;;;;;;;8.05;3.15;;;;;;;;;;5033808;28;20468;-86
2022/10/10 07:28:27;;;;;;;18.30;3.65;;;;;;;;;;5049329;28;20061;-86
2022/10/10 07:30:59;;;;;;;9.38;3.53;;;;;;;;;;5049108;28;20111;-86
2022/10/10 07:33:30;;;;;;;7.93;3.10;;;;;;;;;;5049152;28;20060;-85
2022/10/10 07:35:57;;;;;;;5.82;3.03;;;;;;;;;;5048983;28;20060;-86
2022/10/10 07:38:25;;;;;;;6.68;2.97;;;;;;;;;;5049020;28;20056;-86
2022/10/10 07:40:52;;;;;;;6.88;2.58;;;;;;;;;;5033635;28;20414;-86
2022/10/10 07:43:23;;;;;;;9.23;3.30;;;;;;;;;;5048873;28;20046;-87
2022/10/10 07:45:50;;;;;;;7.30;3.28;;;;;;;;;;5049475;28;20049;-87
2022/10/10 07:48:18;;;;;;;5.32;2.97;;;;;;;;;;5049145;28;20513;-88
2022/10/10 07:50:45;;;;;;;6.63;3.03;;;;;;;;;;5049635;28;20063;-87
2022/10/10 07:53:12;;;;;;;14.60;6.63;;;;;;;;;;5049227;28;20136;-86
2022/10/10 07:55:43;;;;;;;8.57;2.97;;;;;;;;;;5048927;28;20050;-87
2022/10/10 07:58:11;;;;;;;4.32;2.67;;;;;;;;;;5048766;28;20091;-87
2022/10/10 08:00:42;;;;;;;3.42;2.03;;;;;;;;;;5049083;28;20045;-86
2022/10/10 08:03:10;;;;;;;9.32;2.75;;;;;;;;;;5048819;28;20054;-86
2022/10/10 08:05:39;;;;;;;10.25;2.85;;;;;;;;;;5048489;28;20437;-86
2022/10/10 08:08:06;;;;;;;3.55;2.40;;;;;;;;;;5048564;28;20413;-85
2022/10/10 08:10:34;;;;;;;3.45;2.38;;;;;;;;;;5048316;28;20068;-86
2022/10/10 08:13:01;;;;;;;6.78;2.63;;;;;;;;;;5033079;28;20055;-85
2022/10/10 08:15:28;;;;;;;5.50;2.95;;;;;;;;;;5048810;28;20050;-87
2022/10/10 08:18:00;;;;;;;3.78;2.80;;;;;;;;;;5048401;28;20080;-86
2022/10/10 08:20:27;;;;;;;3.80;2.53;;;;;;;;;;5033596;28;20046;-85
2022/10/10 08:22:54;;;;;;;6.75;2.88;;;;;;;;;;5048638;28;20050;-85
2022/10/10 08:25:21;;;;;;;6.60;3.25;;;;;;;;;;5048912;28;20056;-88
2022/10/10 08:27:48;;;;;;;9.30;3.60;;;;;;;;;;5034793;28;20470;-87
2022/10/10 08:30:15;;;;;;;8.05;3.10;;;;;;;;;;5049903;28;20049;-88
2022/10/10 08:32:43;;;;;;;7.38;3.10;;;;;;;;;;5033794;28;20081;-85
2022/10/10 08:35:10;;;;;;;6.50;2.85;;;;;;;;;;5050123;28;20409;-88
2022/10/10 08:37:37;;;;;;;5.95;3.47;;;;;;;;;;5049697;28;20065;-88
2022/10/10 08:40:05;;;;;;;6.20;3.13;;;;;;;;;;5048986;28;20100;-85
2022/10/10 08:42:52;;;;;;;5.53;2.85;;;;;;;;;;5048871;28;20046;-84
2022/10/10 08:45:22;;;;;;;9.02;3.30;;;;;;;;;;5032427;28;20060;-90
2022/10/10 08:47:56;;;;;;;3.72;2.80;;;;;;;;;;5049751;28;20080;-88
2022/10/10 08:50:27;;;;;;;3.35;2.83;;;;;;;;;;5049582;28;20072;-89
2022/10/10 08:52:57;;;;;;;9.35;3.38;;;;;;;;;;5033560;28;20513;-86
2022/10/10 08:55:32;;;;;;;4.97;3.08;;;;;;;;;;5033799;28;20056;-88
2022/10/10 08:58:02;;;;;;;11.32;2.95;;;;;;;;;;5049744;28;20123;-89
2022/10/10 09:00:32;;;;;;;9.60;3.28;;;;;;;;;;5033816;28;20057;-86
2022/10/10 09:03:00;;;;;;;7.85;3.17;;;;;;;;;;5048735;28;20144;-88
2022/10/10 09:05:27;;;;;;;5.13;3.03;;;;;;;;;;5048646;28;20055;-90
2022/10/10 09:07:54;;;;;;;8.82;3.08;;;;;;;;;;5048146;28;20279;-85
2022/10/10 09:10:31;;;;;;;7.65;3.22;;;;;;;;;;5047729;28;20057;-86
2022/10/10 09:13:20;;;;;;;10.68;3.13;;;;;;;;;;5032786;28;20057;-88
2022/10/10 09:15:47;;;;;;;7.00;3.00;;;;;;;;;;5047905;28;20046;-86
2022/10/10 09:18:36;;;;;;;3.78;2.40;;;;;;;;;;5047835;28;20053;-85
2022/10/10 09:21:08;;;;;;;9.07;3.65;;;;;;;;;;5034919;28;20060;-86
2022/10/10 09:23:46;;;;;;;3.50;3.03;;;;;;;;;;5051711;28;20053;-89
2022/10/10 09:26:15;;;;;;;7.38;5.80;;;;;;;;;;5036024;28;20053;-87
2022/10/10 09:28:58;;;;;;;32.78;19.13;;;;;;;;;;5051316;28;20140;-86
2022/10/10 09:31:25;;;;;;;10.93;6.78;;;;;;;;;;5035779;28;20048;-85
2022/10/10 09:33:55;;;;;;;6.85;5.45;;;;;;;;;;5051221;28;20084;-87
2022/10/10 09:36:24;;;;;;;5.20;2.58;;;;;;;;;;5037220;28;20049;-88
2022/10/10 09:38:56;;;;;;;8.85;2.38;;;;;;;;;;5051927;28;20524;-87
2022/10/10 09:41:27;;;;;;;3.85;2.20;;;;;;;;;;5036001;28;20049;-88
2022/10/10 09:43:59;;;;;;;9.35;2.42;;;;;;;;;;5050863;28;20478;-85
2022/10/10 09:46:26;;;;;;;5.15;2.20;;;;;;;;;;5051169;28;20056;-86
2022/10/10 09:48:54;;;;;;;10.40;2.88;;;;;;;;;;5051115;28;20054;-85
2022/10/10 09:51:21;;;;;;;5.25;2.33;;;;;;;;;;5035784;28;20056;-86
2022/10/10 09:53:49;;;;;;;7.18;2.13;;;;;;;;;;5051159;28;20114;-88
2022/10/10 09:56:16;;;;;;;3.38;1.92;;;;;;;;;;5051189;28;20142;-87
2022/10/10 09:58:44;;;;;;;6.35;2.20;;;;;;;;;;5035372;28;20042;-86
2022/10/10 10:01:29;;;;;;;9.32;2.75;;;;;;;;;;5050777;28;20061;-86
2022/10/10 10:04:09;;;;;;;12.82;3.30;;;;;;;;;;5035239;28;20409;-86
2022/10/10 10:07:02;;;;;;;7.78;2.17;;;;;;;;;;5035252;28;20049;-89
2022/10/10 10:09:30;;;;;;;4.18;2.95;;;;;;;;;;5050618;28;20061;-89
2022/10/10 10:11:57;;;;;;;7.75;2.72;;;;;;;;;;5049615;28;20057;-86
2022/10/10 10:14:27;;;;;;;5.70;1.80;;;;;;;;;;5034937;28;20053;-86
2022/10/10 10:16:55;;;;;;;3.03;2.00;;;;;;;;;;5050456;28;20045;-86
2022/10/10 10:19:36;;;;;;;3.40;1.58;;;;;;;;;;5050394;28;20401;-86
2022/10/10 10:22:03;;;;;;;21.50;3.90;;;;;;;;;;5050590;28;20061;-88
2022/10/10 10:24:35;;;;;;;4.88;1.52;;;;;;;;;;5052168;28;20061;-86
2022/10/10 10:27:08;;;;;;;7.57;2.00;;;;;;;;;;5050462;28;20417;-90
2022/10/10 10:29:35;;;;;;;6.07;1.98;;;;;;;;;;5050428;28;20063;-89
2022/10/10 10:32:04;;;;;;;6.82;1.95;;;;;;;;;;5050171;28;20057;-87
2022/10/10 10:34:35;;;;;;;4.57;1.95;;;;;;;;;;5050217;28;20060;-88
2022/10/10 10:37:05;;;;;;;11.18;2.83;;;;;;;;;;5050275;28;20054;-89
2022/10/10 10:39:38;;;;;;;3.83;2.40;;;;;;;;;;5050215;28;20054;-89
2022/10/10 10:42:09;;;;;;;14.98;2.25;;;;;;;;;;5034632;28;20490;-87
2022/10/10 10:44:55;;;;;;;4.90;1.92;;;;;;;;;;5049498;28;20045;-87
2022/10/10 10:47:28;;;;;;;4.55;2.05;;;;;;;;;;5049798;28;20510;-88
2022/10/10 10:50:15;;;;;;;3.15;2.17;;;;;;;;;;5050016;28;20055;-87
2022/10/10 10:53:08;;;;;;;7.38;2.50;;;;;;;;;;5034802;28;20057;-88
2022/10/10 10:55:44;;;;;;;7.07;2.47;;;;;;;;;;5011269;28;20132;-88
2022/10/10 10:58:25;;;;;;;6.35;2.50;;;;;;;;;;5050024;28;20053;-88
2022/10/10 11:01:18;;;;;;;6.53;2.60;;;;;;;;;;5034049;28;20054;-87
2022/10/10 11:04:26;;;;;;;6.00;2.95;;;;;;;;;;5034447;28;20041;-87
2022/10/10 11:07:23;;;;;;;3.63;2.40;;;;;;;;;;5012774;28;20052;-87
2022/10/10 11:09:53;;;;;;;18.20;3.70;;;;;;;;;;5049240;28;20061;-92
2022/10/10 11:12:24;;;;;;;8.20;3.15;;;;;;;;;;5049539;28;20063;-90
2022/10/10 11:15:10;;;;;;;21.52;3.10;;;;;;;;;;5049355;28;20057;-88
2022/10/10 11:17:46;;;;;;;2.70;2.05;;;;;;;;;;5034325;28;20056;-88
2022/10/10 11:20:25;;;;;;;4.30;2.00;;;;;;;;;;5034676;28;20107;-86
2022/10/10 11:22:56;;;;;;;4.32;1.92;;;;;;;;;;5049915;28;20058;-85
2022/10/10 11:25:26;;;;;;;7.43;3.25;;;;;;;;;;5049261;28;20060;-87
2022/10/10 11:27:59;;;;;;;4.50;1.92;;;;;;;;;;5049501;28;20056;-85
2022/10/10 11:30:30;;;;;;;8.90;3.15;;;;;;;;;;5050069;28;20049;-88
2022/10/10 11:33:01;;;;;;;4.82;2.10;;;;;;;;;;5034651;28;20065;-86
2022/10/10 11:35:29;;;;;;;4.85;2.45;;;;;;;;;;5049482;28;20080;-86
2022/10/10 11:38:02;;;;;;;8.48;2.95;;;;;;;;;;5049380;28;20053;-88
2022/10/10 11:40:46;;;;;;;3.50;1.92;;;;;;;;;;5034251;28;20141;-89
2022/10/10 11:43:16;;;;;;;8.65;2.10;;;;;;;;;;5049171;28;20049;-87
2022/10/10 11:45:47;;;;;;;6.30;2.20;;;;;;;;;;5034203;28;20060;-86
2022/10/10 11:48:20;;;;;;;4.38;1.90;;;;;;;;;;5048401;28;20051;-87
2022/10/10 11:50:51;;;;;;;3.00;2.05;;;;;;;;;;5033861;28;20413;-88
2022/10/10 11:53:30;;;;;;;14.02;2.28;;;;;;;;;;5048908;28;20055;-86
2022/10/10 11:55:57;;;;;;;3.15;1.90;;;;;;;;;;5033335;28;20417;-86
2022/10/10 11:58:25;;;;;;;2.80;1.70;;;;;;;;;;5048984;28;20056;-87
2022/10/10 12:00:54;;;;;;;4.25;1.90;;;;;;;;;;5049188;28;20046;-85
2022/10/10 12:03:23;;;;;;;7.25;3.15;;;;;;;;;;5049299;28;20053;-85
2022/10/10 12:05:54;;;;;;;9.05;2.10;;;;;;;;;;5033711;28;20084;-88
2022/10/10 12:08:28;;;;;;;3.85;1.70;;;;;;;;;;5049150;28;20049;-86
2022/10/10 12:11:00;;;;;;;4.72;2.03;;;;;;;;;;5033588;28;20440;-87
2022/10/10 12:13:30;;;;;;;4.28;2.28;;;;;;;;;;5049402;28;20053;-86
2022/10/10 12:16:01;;;;;;;5.43;1.65;;;;;;;;;;5048330;28;20042;-86
2022/10/10 12:18:38;;;;;;;3.90;1.90;;;;;;;;;;5048877;28;20508;-90
2022/10/10 12:21:07;;;;;;;5.20;2.22;;;;;;;;;;5049130;28;20445;-87
2022/10/10 12:23:34;;;;;;;9.32;2.70;;;;;;;;;;5049270;28;20056;-88
2022/10/10 12:26:01;;;;;;;32.85;4.80;;;;;;;;;;5048995;28;20132;-86
2022/10/10 12:28:32;;;;;;;7.55;2.25;;;;;;;;;;5048671;28;20413;-85
2022/10/10 12:31:06;;;;;;;3.97;1.85;;;;;;;;;;5033083;28;20156;-88
2022/10/10 12:33:33;;;;;;;9.25;2.42;;;;;;;;;;5048729;28;20062;-87
2022/10/10 12:36:18;;;;;;;5.45;2.17;;;;;;;;;;5048633;28;20049;-88
2022/10/10 12:39:15;;;;;;;2.00;1.80;;;;;;;;;;5033598;28;20061;-87
2022/10/10 12:41:42;;;;;;;8.90;2.22;;;;;;;;;;4980894;28;20102;-88
2022/10/10 12:44:19;;;;;;;5.25;2.30;;;;;;;;;;5033169;28;20064;-87
2022/10/10 12:46:49;;;;;;;8.27;2.40;;;;;;;;;;5048967;28;20394;-87
2022/10/10 12:49:24;;;;;;;13.63;2.78;;;;;;;;;;5048832;28;20053;-86
2022/10/10 12:52:02;;;;;;;7.13;2.22;;;;;;;;;;5033281;28;20046;-86
2022/10/10 12:54:33;;;;;;;6.85;1.90;;;;;;;;;;5033232;28;20049;-86
2022/10/10 12:57:05;;;;;;;4.78;2.03;;;;;;;;;;5037067;28;20050;-87
2022/10/10 12:59:34;;;;;;;6.80;2.33;;;;;;;;;;5052878;28;20057;-86
2022/10/10 13:02:05;;;;;;;4.78;1.77;;;;;;;;;;5052364;28;20054;-85
2022/10/10 13:04:32;;;;;;;6.35;2.00;;;;;;;;;;5051898;28;20068;-87
2022/10/10 13:07:01;;;;;;;4.65;2.13;;;;;;;;;;5052516;28;20057;-86
2022/10/10 13:09:33;;;;;;;5.88;1.90;;;;;;;;;;5052584;28;20056;-88
2022/10/10 13:12:06;;;;;;;5.78;2.30;;;;;;;;;;5052467;28;20088;-86
2022/10/10 13:14:38;;;;;;;4.35;2.08;;;;;;;;;;5051952;28;20049;-89
2022/10/10 13:17:25;;;;;;;4.15;2.22;;;;;;;;;;5052135;28;20065;-88
2022/10/10 13:19:53;;;;;;;10.70;2.25;;;;;;;;;;5036571;28;20410;-88
2022/10/10 13:22:21;;;;;;;10.98;2.28;;;;;;;;;;5052243;28;20057;-90
2022/10/10 13:24:49;;;;;;;4.53;2.10;;;;;;;;;;5051761;28;20418;-88
2022/10/10 13:27:24;;;;;;;6.78;2.58;;;;;;;;;;5051873;28;20498;-88
2022/10/10 13:29:52;;;;;;;8.23;2.45;;;;;;;;;;5036349;28;20057;-87
2022/10/10 13:32:27;;;;;;;7.25;2.13;;;;;;;;;;5052243;28;20067;-90
2022/10/10 13:35:03;;;;;;;7.10;2.30;;;;;;;;;;5037041;28;20050;-89
2022/10/10 13:37:30;;;;;;;6.72;2.42;;;;;;;;;;5051954;28;20053;-87
2022/10/10 13:39:58;;;;;;;9.45;2.15;;;;;;;;;;5036723;28;20078;-90
2022/10/10 13:42:28;;;;;;;6.15;2.30;;;;;;;;;;5036139;28;20079;-89
2022/10/10 13:44:55;;;;;;;4.60;1.83;;;;;;;;;;5036220;28;20056;-88
2022/10/10 13:47:41;;;;;;;6.03;2.60;;;;;;;;;;5051722;28;20053;-88
2022/10/10 13:50:17;;;;;;;3.83;2.08;;;;;;;;;;5036160;28;20052;-89
2022/10/10 13:52:44;;;;;;;11.40;2.30;;;;;;;;;;5035869;28;20065;-88
2022/10/10 13:55:15;;;;;;;5.68;2.20;;;;;;;;;;5051395;28;20052;-88
2022/10/10 13:57:42;;;;;;;10.80;2.10;;;;;;;;;;5051614;28;20064;-87
2022/10/10 14:00:19;;;;;;;10.02;2.10;;;;;;;;;;5051308;28;20053;-89
2022/10/10 14:02:47;;;;;;;6.00;2.42;;;;;;;;;;5051585;28;20064;-88
2022/10/10 14:05:31;;;;;;;9.65;2.72;;;;;;;;;;5051613;28;20049;-88
2022/10/10 14:07:58;;;;;;;7.10;2.20;;;;;;;;;;5051378;28;20052;-91
2022/10/10 14:10:27;;;;;;;10.30;2.42;;;;;;;;;;5051228;28;20053;-88
2022/10/10 14:12:56;;;;;;;8.23;2.45;;;;;;;;;;5051313;28;20521;-91
2022/10/10 14:15:36;;;;;;;10.32;2.33;;;;;;;;;;5051908;28;20136;-87
2022/10/10 14:18:12;;;;;;;12.40;3.13;;;;;;;;;;5051123;28;20052;-92
2022/10/10 14:20:40;;;;;;;11.35;2.15;;;;;;;;;;5051916;28;20191;-86
2022/10/10 14:23:07;;;;;;;8.23;2.30;;;;;;;;;;5035304;28;20050;-87
2022/10/10 14:25:36;;;;;;;10.57;2.20;;;;;;;;;;5050698;28;20494;-88
2022/10/10 14:28:03;;;;;;;9.50;2.67;;;;;;;;;;5035194;28;20049;-87
2022/10/10 14:30:30;;;;;;;9.23;2.67;;;;;;;;;;5051175;28;20057;-91
2022/10/10 14:32:58;;;;;;;7.50;2.15;;;;;;;;;;5035650;28;20497;-92
2022/10/10 14:35:25;;;;;;;3.30;2.13;;;;;;;;;;5050931;28;20064;-89
2022/10/10 14:37:52;;;;;;;5.53;2.20;;;;;;;;;;5050745;28;20045;-88
2022/10/10 14:40:20;;;;;;;7.05;2.53;;;;;;;;;;5050876;28;20124;-88
2022/10/10 14:42:48;;;;;;;5.15;2.17;;;;;;;;;;5050641;28;20049;-87
2022/10/10 14:45:16;;;;;;;6.88;2.25;;;;;;;;;;5050566;28;20504;-91
2022/10/10 14:47:43;;;;;;;9.77;2.95;;;;;;;;;;5050580;28;20060;-87
2022/10/10 14:50:15;;;;;;;8.27;2.22;;;;;;;;;;5050538;28;20132;-90
2022/10/10 14:52:42;;;;;;;10.05;2.40;;;;;;;;;;5050407;28;20065;-89
2022/10/10 14:55:10;;;;;;;7.15;1.85;;;;;;;;;;5050198;28;20049;-87
2022/10/10 14:57:37;;;;;;;6.88;2.40;;;;;;;;;;5050465;28;20045;-88